createdAt,value
2023-01-26T00:01:14.813Z,47.92
2023-01-26T00:03:41.398Z,50.90
2023-01-26T00:06:10.059Z,48.90
2023-01-26T00:08:44.363Z,49.50
2023-01-26T00:11:13.074Z,49.95
2023-01-26T00:13:39.945Z,45.20
2023-01-26T00:16:09.989Z,47.30
2023-01-26T00:18:37.670Z,47.90
2023-01-26T00:21:04.266Z,47.88
2023-01-26T00:23:32.320Z,47.83
2023-01-26T00:25:58.788Z,49.80
2023-01-26T00:28:25.269Z,46.30
2023-01-26T00:30:51.640Z,47.25
2023-01-26T00:33:18.029Z,48.88
2023-01-26T00:35:44.730Z,49.95
2023-01-26T00:38:14.344Z,48.53
2023-01-26T00:40:41.382Z,50.42
2023-01-26T00:43:07.775Z,46.35
2023-01-26T00:45:34.883Z,47.63
2023-01-26T00:48:01.467Z,48.92
2023-01-26T00:50:27.888Z,47.88
2023-01-26T00:52:54.243Z,50.65
2023-01-26T00:55:20.719Z,49.33
2023-01-26T00:57:47.065Z,47.28
2023-01-26T01:00:16.593Z,44.50
2023-01-26T01:02:43.690Z,47.22
2023-01-26T01:05:10.290Z,47.05
2023-01-26T01:07:36.827Z,48.45
2023-01-26T01:10:03.457Z,46.47
2023-01-26T01:12:29.868Z,45.60
2023-01-26T01:14:56.256Z,50.10
2023-01-26T01:17:22.634Z,45.45
2023-01-26T01:19:49.029Z,47.38
2023-01-26T01:22:15.412Z,45.53
2023-01-26T01:24:41.989Z,49.35
2023-01-26T01:27:08.400Z,47.15
2023-01-26T01:29:34.822Z,48.03
2023-01-26T01:32:01.309Z,48.35
2023-01-26T01:34:27.793Z,46.95
2023-01-26T01:36:54.160Z,48.55
2023-01-26T01:39:20.583Z,47.28
2023-01-26T01:41:46.976Z,47.72
2023-01-26T01:44:18.666Z,46.22
2023-01-26T01:46:49.172Z,47.22
2023-01-26T01:49:24.032Z,45.70
2023-01-26T01:51:53.080Z,45.60
2023-01-26T01:54:23.175Z,45.83
2023-01-26T01:56:53.826Z,46.45
2023-01-26T01:59:21.329Z,46.40
2023-01-26T02:01:49.688Z,48.42
2023-01-26T02:04:16.152Z,46.92
2023-01-26T02:06:47.661Z,45.63
2023-01-26T02:09:34.256Z,44.97
2023-01-26T02:12:02.515Z,48.95
2023-01-26T02:14:29.458Z,46.28
2023-01-26T02:16:55.864Z,45.53
2023-01-26T02:19:30.827Z,49.20
2023-01-26T02:22:00.137Z,47.13
2023-01-26T02:24:29.831Z,49.10
2023-01-26T02:26:56.447Z,49.28
2023-01-26T02:29:23.253Z,46.08
2023-01-26T02:31:49.757Z,45.28
2023-01-26T02:34:16.224Z,48.50
2023-01-26T02:36:42.602Z,48.72
2023-01-26T02:39:11.855Z,48.05
2023-01-26T02:41:57.617Z,46.15
2023-01-26T02:44:24.474Z,47.78
2023-01-26T02:46:50.906Z,47.00
2023-01-26T02:49:35.663Z,46.03
2023-01-26T02:52:02.067Z,47.75
2023-01-26T02:54:47.251Z,48.78
2023-01-26T02:57:13.630Z,51.55
2023-01-26T02:59:40.027Z,53.03
2023-01-26T03:02:06.597Z,51.80
2023-01-26T03:04:33.052Z,50.17
2023-01-26T03:06:59.503Z,47.78
2023-01-26T03:09:25.926Z,51.28
2023-01-26T03:11:52.645Z,51.22
2023-01-26T03:14:19.036Z,49.95
2023-01-26T03:16:45.490Z,51.45
2023-01-26T03:19:32.479Z,48.85
2023-01-26T03:22:18.048Z,48.75
2023-01-26T03:25:02.928Z,47.40
2023-01-26T03:27:33.365Z,45.90
2023-01-26T03:29:59.781Z,51.20
2023-01-26T03:32:26.316Z,46.00
2023-01-26T03:34:52.828Z,49.00
2023-01-26T03:37:22.587Z,49.90
2023-01-26T03:40:08.833Z,48.55
2023-01-26T03:42:54.624Z,45.22
2023-01-26T03:45:40.060Z,48.75
2023-01-26T03:48:30.265Z,44.10
2023-01-26T03:51:15.839Z,49.33
2023-01-26T03:54:01.307Z,46.35
2023-01-26T03:56:32.278Z,47.15
2023-01-26T03:59:07.970Z,48.10
2023-01-26T04:02:01.349Z,46.45
2023-01-26T04:04:46.384Z,47.80
2023-01-26T04:07:31.101Z,48.15
2023-01-26T04:09:57.536Z,49.22
2023-01-26T04:12:23.917Z,50.58
2023-01-26T04:15:09.055Z,47.65
2023-01-26T04:17:53.939Z,51.25
2023-01-26T04:20:38.933Z,48.00
2023-01-26T04:23:05.315Z,45.70
2023-01-26T04:25:31.706Z,51.50
2023-01-26T04:27:58.111Z,46.15
2023-01-26T04:30:24.534Z,49.35
2023-01-26T04:32:51.666Z,48.25
2023-01-26T04:35:18.063Z,48.08
2023-01-26T04:37:44.494Z,49.05
2023-01-26T04:40:11.810Z,48.28
2023-01-26T04:42:39.391Z,44.65
2023-01-26T04:45:06.117Z,48.67
2023-01-26T04:47:32.623Z,48.40
2023-01-26T04:49:59.164Z,47.85
2023-01-26T04:52:25.563Z,49.55
2023-01-26T04:54:51.983Z,49.05
2023-01-26T04:57:21.008Z,47.83
2023-01-26T04:59:47.374Z,48.03
2023-01-26T05:02:13.907Z,49.40
2023-01-26T05:04:40.392Z,46.55
2023-01-26T05:07:06.777Z,50.42
2023-01-26T05:09:33.135Z,50.00
2023-01-26T05:12:19.488Z,49.17
2023-01-26T05:14:45.989Z,48.15
2023-01-26T05:17:12.380Z,47.92
2023-01-26T05:19:38.764Z,51.40
2023-01-26T05:22:05.189Z,47.78
2023-01-26T05:24:31.554Z,50.25
2023-01-26T05:27:17.928Z,53.17
2023-01-26T05:29:44.389Z,53.05
2023-01-26T05:32:10.775Z,53.17
2023-01-26T05:34:37.310Z,55.10
2023-01-26T05:37:03.739Z,55.58
2023-01-26T05:39:30.145Z,53.13
2023-01-26T05:41:56.924Z,56.63
2023-01-26T05:44:24.851Z,55.20
2023-01-26T05:46:51.930Z,52.78
2023-01-26T05:49:18.456Z,56.55
2023-01-26T05:51:44.856Z,57.78
2023-01-26T05:54:11.380Z,58.47
2023-01-26T05:56:37.778Z,55.70
2023-01-26T05:59:04.256Z,52.60
2023-01-26T06:01:30.755Z,57.13
2023-01-26T06:03:57.146Z,55.75
2023-01-26T06:06:23.566Z,54.65
2023-01-26T06:08:49.938Z,57.33
2023-01-26T06:11:16.471Z,51.85
2023-01-26T06:13:42.881Z,53.45
2023-01-26T06:16:09.273Z,52.45
2023-01-26T06:18:35.653Z,53.05
2023-01-26T06:21:02.019Z,52.53
2023-01-26T06:23:28.548Z,54.17
2023-01-26T06:26:00.190Z,52.63
2023-01-26T06:28:27.643Z,52.67
2023-01-26T06:31:02.549Z,53.67
2023-01-26T06:33:29.373Z,52.83
2023-01-26T06:35:56.524Z,49.38
2023-01-26T06:38:23.000Z,50.25
2023-01-26T06:40:50.543Z,48.00
2023-01-26T06:43:16.903Z,49.33
2023-01-26T06:45:43.434Z,49.72
2023-01-26T06:48:09.980Z,50.83
2023-01-26T06:50:36.363Z,49.08
2023-01-26T06:53:25.953Z,45.45
2023-01-26T06:55:52.317Z,44.20
2023-01-26T06:58:18.749Z,44.80
2023-01-26T07:00:45.204Z,43.42
2023-01-26T07:03:11.736Z,44.83
2023-01-26T07:05:38.117Z,42.92
2023-01-26T07:08:06.463Z,43.95
2023-01-26T07:10:33.031Z,46.53
2023-01-26T07:12:59.505Z,44.90
2023-01-26T07:15:25.949Z,45.65
2023-01-26T07:17:52.574Z,46.65
2023-01-26T07:20:19.108Z,45.65
2023-01-26T07:22:45.567Z,43.83
2023-01-26T07:25:11.934Z,49.17
2023-01-26T07:27:38.474Z,46.55
2023-01-26T07:30:05.465Z,45.00
2023-01-26T07:32:31.853Z,44.67
2023-01-26T07:34:58.309Z,45.05
2023-01-26T07:37:28.402Z,43.53
2023-01-26T07:39:54.855Z,43.65
2023-01-26T07:42:21.273Z,43.00
2023-01-26T07:44:47.654Z,44.35
2023-01-26T07:47:14.611Z,44.47
2023-01-26T07:49:41.259Z,45.08
2023-01-26T07:52:09.158Z,44.80
2023-01-26T07:54:35.633Z,42.67
2023-01-26T07:57:02.060Z,44.40
2023-01-26T07:59:28.463Z,43.35
2023-01-26T08:01:54.974Z,43.70
2023-01-26T08:04:21.401Z,44.80
2023-01-26T08:06:47.774Z,44.75
2023-01-26T08:09:14.261Z,45.60
2023-01-26T08:11:40.626Z,41.22
2023-01-26T08:14:07.118Z,46.00
2023-01-26T08:16:33.531Z,46.45
2023-01-26T08:18:59.956Z,43.53
2023-01-26T08:21:26.567Z,45.00
2023-01-26T08:23:53.024Z,46.35
2023-01-26T08:26:20.193Z,45.75
2023-01-26T08:28:46.853Z,46.15
2023-01-26T08:31:18.711Z,46.30
2023-01-26T08:33:46.363Z,43.72
2023-01-26T08:36:14.663Z,43.78
2023-01-26T08:38:42.067Z,44.20
2023-01-26T08:41:08.949Z,45.47
2023-01-26T08:43:35.820Z,46.30
2023-01-26T08:46:02.957Z,45.13
2023-01-26T08:48:31.040Z,43.03
2023-01-26T08:50:59.741Z,44.67
2023-01-26T08:53:26.646Z,42.88
2023-01-26T08:55:53.019Z,42.42
2023-01-26T08:58:20.438Z,45.22
2023-01-26T09:00:46.937Z,45.67
2023-01-26T09:03:13.525Z,44.15
2023-01-26T09:05:40.197Z,45.58
2023-01-26T09:08:08.329Z,41.38
2023-01-26T09:10:34.995Z,43.95
2023-01-26T09:13:01.823Z,41.70
2023-01-26T09:15:28.570Z,46.25
2023-01-26T09:17:55.090Z,45.22
2023-01-26T09:20:21.607Z,42.85
2023-01-26T09:22:48.005Z,41.67
2023-01-26T09:25:14.865Z,39.35
2023-01-26T09:27:41.373Z,39.92
2023-01-26T09:30:09.184Z,43.60
2023-01-26T09:32:35.557Z,38.50
2023-01-26T09:35:01.942Z,42.08
2023-01-26T09:37:28.427Z,39.45
2023-01-26T09:39:54.832Z,40.95
2023-01-26T09:42:40.057Z,40.17
2023-01-26T09:45:13.011Z,40.60
2023-01-26T09:47:55.484Z,37.72
2023-01-26T09:50:25.901Z,38.67
2023-01-26T09:52:54.325Z,37.30
2023-01-26T09:55:22.334Z,39.72
2023-01-26T09:58:00.939Z,36.47
2023-01-26T10:00:49.701Z,38.78
2023-01-26T10:03:25.145Z,35.90
2023-01-26T10:06:15.553Z,37.03
2023-01-26T10:08:43.676Z,35.47
2023-01-26T10:11:20.689Z,34.90
2023-01-26T10:13:55.156Z,35.58
2023-01-26T10:16:24.845Z,37.63
2023-01-26T10:18:59.330Z,33.97
2023-01-26T10:21:30.482Z,32.97
2023-01-26T10:23:59.303Z,33.70
2023-01-26T10:26:32.685Z,34.20
2023-01-26T10:28:59.237Z,34.05
2023-01-26T10:31:28.806Z,32.03
2023-01-26T10:34:25.193Z,35.35
2023-01-26T10:36:56.462Z,34.47
2023-01-26T10:39:22.894Z,32.50
2023-01-26T10:42:03.183Z,35.30
2023-01-26T10:44:34.721Z,36.47
2023-01-26T10:47:15.713Z,32.55
2023-01-26T10:49:43.116Z,33.57
2023-01-26T10:52:18.693Z,31.50
2023-01-26T10:54:46.301Z,29.83
2023-01-26T10:57:28.491Z,32.10
2023-01-26T10:59:54.809Z,31.40
2023-01-26T11:02:24.475Z,29.70
2023-01-26T11:05:09.249Z,25.35
2023-01-26T11:07:40.711Z,23.90
2023-01-26T11:10:28.485Z,22.10
2023-01-26T11:13:20.292Z,22.30
2023-01-26T11:16:00.826Z,21.70
2023-01-26T11:18:51.597Z,21.27
2023-01-26T11:21:36.306Z,19.10
2023-01-26T11:24:34.754Z,20.25
2023-01-26T11:27:25.549Z,18.52
2023-01-26T11:30:16.890Z,19.17
2023-01-26T11:33:17.177Z,19.83
2023-01-26T11:36:12.194Z,18.02
2023-01-26T11:38:43.550Z,18.00
2023-01-26T11:41:46.002Z,17.48
2023-01-26T11:44:25.425Z,15.63
2023-01-26T11:47:22.706Z,17.58
2023-01-26T11:50:05.124Z,16.80
2023-01-26T11:55:18.871Z,15.40
2023-01-26T11:58:24.188Z,15.48
2023-01-26T12:00:57.201Z,15.60
2023-01-26T12:03:45.434Z,17.75
2023-01-26T12:06:28.004Z,15.18
2023-01-26T12:09:00.228Z,14.20
2023-01-26T12:14:04.596Z,14.60
2023-01-26T12:16:40.666Z,14.57
2023-01-26T12:19:25.712Z,16.40
2023-01-26T12:21:54.955Z,17.20
2023-01-26T12:25:01.194Z,15.25
2023-01-26T12:27:25.753Z,14.38
2023-01-26T12:32:30.211Z,12.52
2023-01-26T12:34:57.883Z,12.30
2023-01-26T12:37:34.767Z,12.88
2023-01-26T12:40:15.329Z,13.15
2023-01-26T12:43:12.637Z,11.98
2023-01-26T12:45:42.471Z,11.65
2023-01-26T12:48:40.402Z,11.20
2023-01-26T12:51:11.534Z,11.32
2023-01-26T12:53:51.497Z,11.85
2023-01-26T12:56:28.255Z,12.00
2023-01-26T12:58:56.753Z,12.48
2023-01-26T13:01:26.176Z,12.15
2023-01-26T13:03:56.033Z,12.73
2023-01-26T13:06:26.115Z,13.82
2023-01-26T13:09:04.419Z,13.55
2023-01-26T13:11:54.290Z,12.05
2023-01-26T13:14:38.783Z,12.93
2023-01-26T13:17:17.430Z,12.13
2023-01-26T13:19:43.862Z,11.73
2023-01-26T13:22:19.575Z,12.80
2023-01-26T13:24:48.596Z,11.55
2023-01-26T13:27:39.147Z,11.63
2023-01-26T13:30:26.912Z,12.00
2023-01-26T13:33:13.749Z,11.93
2023-01-26T13:35:40.570Z,10.40
2023-01-26T13:38:14.063Z,11.18
2023-01-26T13:40:44.381Z,10.38
2023-01-26T13:43:31.970Z,10.45
2023-01-26T13:46:22.000Z,10.52
2023-01-26T13:48:50.232Z,10.15
2023-01-26T13:51:27.916Z,9.93
2023-01-26T13:54:01.489Z,11.77
2023-01-26T13:56:36.237Z,10.70
2023-01-26T13:59:10.965Z,11.57
2023-01-26T14:01:45.681Z,14.32
2023-01-26T14:04:22.673Z,13.98
2023-01-26T14:07:18.891Z,13.95
2023-01-26T14:09:47.804Z,15.07
2023-01-26T14:12:21.988Z,16.75
2023-01-26T14:14:50.761Z,15.73
2023-01-26T14:17:33.595Z,17.60
2023-01-26T14:20:00.570Z,18.08
2023-01-26T14:22:27.557Z,18.40
2023-01-26T14:24:54.502Z,18.98
2023-01-26T14:27:30.783Z,17.10
2023-01-26T14:29:57.515Z,17.10
2023-01-26T14:32:25.456Z,17.92
2023-01-26T14:34:54.043Z,19.45
2023-01-26T14:37:20.559Z,19.73
2023-01-26T14:39:48.001Z,18.95
2023-01-26T14:42:16.456Z,20.52
2023-01-26T14:44:42.960Z,18.70
2023-01-26T14:47:16.623Z,20.27
2023-01-26T14:50:17.580Z,21.23
2023-01-26T14:52:44.892Z,20.73
2023-01-26T14:55:33.295Z,20.13
2023-01-26T14:58:01.409Z,21.13
2023-01-26T15:00:29.936Z,21.55
2023-01-26T15:02:58.739Z,22.05
2023-01-26T15:05:37.017Z,20.92
2023-01-26T15:08:21.383Z,22.30
2023-01-26T15:11:18.235Z,20.75
2023-01-26T15:13:46.688Z,20.30
2023-01-26T15:16:18.782Z,19.58
2023-01-26T15:18:47.607Z,20.58
2023-01-26T15:21:15.025Z,20.73
2023-01-26T15:23:44.178Z,20.25
2023-01-26T15:26:23.285Z,22.23
2023-01-26T15:28:54.649Z,22.60
2023-01-26T15:31:25.394Z,15.48
2023-01-26T15:33:53.948Z,21.05
2023-01-26T15:36:43.509Z,22.33
2023-01-26T15:39:14.825Z,21.75
2023-01-26T15:41:42.573Z,22.10
2023-01-26T15:44:17.266Z,21.30
2023-01-26T15:46:43.819Z,21.98
2023-01-26T15:49:11.055Z,21.05
2023-01-26T15:51:37.986Z,23.20
2023-01-26T15:54:05.001Z,21.98
2023-01-26T15:56:31.690Z,20.33
2023-01-26T15:58:58.162Z,22.35
2023-01-26T16:01:24.608Z,21.17
2023-01-26T16:03:51.618Z,22.50
2023-01-26T16:06:26.487Z,23.70
2023-01-26T16:08:54.219Z,25.27
2023-01-26T16:11:22.153Z,24.38
2023-01-26T16:14:02.295Z,23.85
2023-01-26T16:16:29.678Z,26.85
2023-01-26T16:18:56.647Z,26.15
2023-01-26T16:21:25.974Z,27.10
2023-01-26T16:23:52.407Z,24.98
2023-01-26T16:26:19.278Z,24.60
2023-01-26T16:28:46.397Z,25.52
2023-01-26T16:31:21.387Z,25.15
2023-01-26T16:33:48.787Z,28.38
2023-01-26T16:36:16.416Z,26.10
2023-01-26T16:38:43.294Z,26.80
2023-01-26T16:41:29.770Z,24.77
2023-01-26T16:43:58.645Z,28.10
2023-01-26T16:46:25.673Z,24.52
2023-01-26T16:48:52.181Z,26.13
2023-01-26T16:51:27.710Z,28.92
2023-01-26T16:53:55.367Z,27.55
2023-01-26T16:56:22.631Z,27.38
2023-01-26T16:58:49.345Z,26.83
2023-01-26T17:01:38.016Z,27.02
2023-01-26T17:04:05.232Z,27.45
2023-01-26T17:06:32.598Z,27.63
2023-01-26T17:08:58.986Z,30.38
2023-01-26T17:11:28.075Z,27.02
2023-01-26T17:14:03.015Z,26.65
2023-01-26T17:16:29.824Z,29.52
2023-01-26T17:18:56.559Z,31.55
2023-01-26T17:21:23.119Z,31.27
2023-01-26T17:23:53.635Z,30.08
2023-01-26T17:26:21.378Z,31.83
2023-01-26T17:28:50.017Z,31.92
2023-01-26T17:31:17.999Z,31.30
2023-01-26T17:33:45.728Z,32.88
2023-01-26T17:36:12.934Z,34.28
2023-01-26T17:38:39.436Z,30.67
2023-01-26T17:41:06.318Z,30.48
2023-01-26T17:43:32.907Z,37.13
2023-01-26T17:46:06.842Z,33.47
2023-01-26T17:48:35.172Z,34.28
2023-01-26T17:51:04.776Z,37.33
2023-01-26T17:53:31.159Z,35.85
2023-01-26T17:55:57.660Z,32.58
2023-01-26T17:58:24.036Z,31.67
2023-01-26T18:00:50.446Z,30.90
2023-01-26T18:03:16.943Z,33.08
2023-01-26T18:05:53.781Z,30.80
2023-01-26T18:08:20.367Z,31.98
2023-01-26T18:10:47.005Z,33.53
2023-01-26T18:13:13.907Z,32.58
2023-01-26T18:15:40.415Z,31.95
2023-01-26T18:18:06.999Z,32.75
2023-01-26T18:20:33.448Z,35.25
2023-01-26T18:23:00.277Z,33.20
2023-01-26T18:25:26.719Z,33.08
2023-01-26T18:27:53.137Z,34.38
2023-01-26T18:30:19.566Z,30.27
2023-01-26T18:32:45.986Z,33.33
2023-01-26T18:35:12.666Z,32.85
2023-01-26T18:37:39.331Z,33.13
2023-01-26T18:40:07.879Z,31.65
2023-01-26T18:42:34.274Z,30.98
2023-01-26T18:45:01.304Z,30.80
2023-01-26T18:47:28.181Z,32.28
2023-01-26T18:49:55.021Z,30.25
2023-01-26T18:52:21.773Z,32.53
2023-01-26T18:54:48.258Z,29.80
2023-01-26T18:57:14.792Z,32.15
2023-01-26T18:59:41.258Z,34.65
2023-01-26T19:02:07.766Z,35.90
2023-01-26T19:04:34.327Z,33.53
2023-01-26T19:07:00.784Z,32.10
2023-01-26T19:09:30.814Z,35.00
2023-01-26T19:11:58.232Z,32.75
2023-01-26T19:14:24.680Z,32.28
2023-01-26T19:16:51.211Z,31.08
2023-01-26T19:19:17.640Z,33.85
2023-01-26T19:21:44.021Z,32.72
2023-01-26T19:24:10.554Z,33.58
2023-01-26T19:26:36.956Z,33.30
2023-01-26T19:29:03.861Z,32.63
2023-01-26T19:31:30.784Z,31.65
2023-01-26T19:34:00.851Z,30.60
2023-01-26T19:36:29.042Z,33.80
2023-01-26T19:38:55.605Z,33.22
2023-01-26T19:41:22.879Z,32.50
2023-01-26T19:43:50.320Z,30.88
2023-01-26T19:46:17.640Z,33.50
2023-01-26T19:48:44.476Z,30.70
2023-01-26T19:51:16.232Z,29.95
2023-01-26T19:53:44.340Z,33.70
2023-01-26T19:56:16.739Z,31.67
2023-01-26T19:58:43.664Z,32.00
2023-01-26T20:01:11.944Z,35.58
2023-01-26T20:03:38.970Z,33.42
2023-01-26T20:06:06.163Z,33.53
2023-01-26T20:08:33.412Z,35.42
2023-01-26T20:11:06.942Z,35.28
2023-01-26T20:13:33.783Z,32.25
2023-01-26T20:16:00.436Z,33.28
2023-01-26T20:18:26.887Z,35.15
2023-01-26T20:20:54.346Z,33.75
2023-01-26T20:23:21.228Z,33.00
2023-01-26T20:25:47.935Z,31.13
2023-01-26T20:28:14.680Z,32.10
2023-01-26T20:30:41.700Z,33.72
2023-01-26T20:33:08.144Z,35.03
2023-01-26T20:35:34.996Z,31.13
2023-01-26T20:38:01.435Z,33.47
2023-01-26T20:40:28.888Z,33.08
2023-01-26T20:42:55.319Z,32.55
2023-01-26T20:45:22.888Z,37.75
2023-01-26T20:47:49.293Z,36.03
2023-01-26T20:50:15.777Z,38.30
2023-01-26T20:52:43.726Z,35.78
2023-01-26T20:55:11.925Z,34.72
2023-01-26T20:57:38.554Z,34.72
2023-01-26T21:00:07.168Z,35.67
2023-01-26T21:02:33.565Z,34.10
2023-01-26T21:05:00.614Z,34.05
2023-01-26T21:07:28.518Z,35.50
2023-01-26T21:09:54.991Z,37.30
2023-01-26T21:12:21.359Z,36.47
2023-01-26T21:14:48.134Z,32.50
2023-01-26T21:17:15.613Z,33.10
2023-01-26T21:19:41.976Z,33.88
2023-01-26T21:22:08.398Z,46.08
2023-01-26T21:24:35.381Z,43.08
2023-01-26T21:27:02.752Z,42.13
2023-01-26T21:29:29.189Z,41.15
2023-01-26T21:31:55.685Z,42.13
2023-01-26T21:34:22.166Z,45.42
2023-01-26T21:36:48.737Z,45.10
2023-01-26T21:39:15.260Z,45.67
2023-01-26T21:41:56.583Z,42.45
2023-01-26T21:44:28.462Z,39.85
2023-01-26T21:46:57.458Z,45.08
2023-01-26T21:49:24.392Z,42.60
2023-01-26T21:52:10.065Z,40.60
2023-01-26T21:54:36.779Z,35.15
2023-01-26T21:57:24.971Z,24.80
2023-01-26T21:59:51.785Z,17.25
2023-01-26T22:02:18.260Z,16.23
2023-01-26T22:04:44.698Z,14.32
2023-01-26T22:07:11.093Z,14.13
2023-01-26T22:09:38.781Z,12.98
2023-01-26T22:12:05.489Z,14.68
2023-01-26T22:14:31.855Z,14.45
2023-01-26T22:16:58.260Z,14.25
2023-01-26T22:19:25.820Z,13.32
2023-01-26T22:21:52.192Z,13.32
2023-01-26T22:24:18.921Z,11.65
2023-01-26T22:26:45.436Z,10.82
2023-01-26T22:29:14.878Z,8.15
2023-01-26T22:31:41.838Z,9.05
2023-01-26T22:34:10.472Z,9.43
2023-01-26T22:36:36.916Z,8.55
2023-01-26T22:39:03.373Z,8.63
2023-01-26T22:41:30.474Z,8.48
2023-01-26T22:43:58.730Z,8.02
2023-01-26T22:46:26.312Z,8.77
2023-01-26T22:48:53.028Z,7.72
2023-01-26T22:51:21.713Z,8.07
2023-01-26T22:53:49.189Z,9.25
2023-01-26T22:56:16.300Z,8.75
2023-01-26T22:58:57.189Z,10.05
2023-01-26T23:01:25.470Z,9.40
2023-01-26T23:03:53.377Z,9.23
2023-01-26T23:06:20.230Z,7.47
2023-01-26T23:08:46.718Z,9.95
2023-01-26T23:11:32.288Z,11.32
2023-01-26T23:14:00.115Z,10.45
2023-01-26T23:16:27.279Z,10.30
2023-01-26T23:18:55.568Z,11.23
2023-01-26T23:21:22.497Z,9.80
2023-01-26T23:23:48.954Z,8.75
2023-01-26T23:26:15.430Z,9.13
2023-01-26T23:28:43.033Z,10.45
2023-01-26T23:31:11.269Z,9.85
2023-01-26T23:33:38.515Z,9.77
2023-01-26T23:36:06.115Z,9.48
2023-01-26T23:38:32.948Z,10.27
2023-01-26T23:41:00.496Z,11.43
2023-01-26T23:43:27.329Z,10.48
2023-01-26T23:45:56.219Z,10.32
2023-01-26T23:48:23.195Z,9.95
2023-01-26T23:50:55.096Z,11.52
2023-01-26T23:53:21.467Z,10.90
2023-01-26T23:55:47.845Z,9.95
2023-01-26T23:58:14.255Z,9.82
